Time;durP1;ratioP1;P1;durP2;ratioP2;P2;SDS_P1;SDS_P2;PMS_P1;PMS_P2;Temp;Humidity;BMP_temperature;BMP_pressure;BME280_temperature;BME280_humidity;BME280_pressure;Samples;Min_cycle;Max_cycle;Signal;HPM_P1;HPM_P2
2021/03/20 00:02:24;;;;;;;1.87;1.43;;;;;;;0.75;71.03;98653.53;5056803;28;20387;-75
2021/03/20 00:04:50;;;;;;;1.60;0.77;;;;;;;0.63;70.40;98653.44;5058582;28;20415;-77
2021/03/20 00:07:16;;;;;;;2.07;0.90;;;;;;;0.54;70.55;98655.03;5059977;28;20240;-76
2021/03/20 00:09:42;;;;;;;3.13;1.07;;;;;;;0.48;69.75;98657.56;5058881;28;20209;-74
2021/03/20 00:12:09;;;;;;;1.00;0.70;;;;;;;0.38;67.96;98660.88;5056979;28;21024;-77
2021/03/20 00:14:36;;;;;;;1.10;0.60;;;;;;;0.25;69.31;98669.28;5055206;28;20713;-75
2021/03/20 00:17:03;;;;;;;5.40;2.90;;;;;;;0.23;68.51;98658.16;5055817;28;20375;-76
2021/03/20 00:19:29;;;;;;;6.40;3.20;;;;;;;0.24;67.09;98667.56;5057957;28;20300;-76
2021/03/20 00:21:55;;;;;;;1.23;0.53;;;;;;;0.19;66.98;98668.38;5057979;28;20335;-76
2021/03/20 00:24:21;;;;;;;0.93;0.47;;;;;;;0.19;67.52;98673.50;5057371;28;20280;-76
2021/03/20 00:26:47;;;;;;;0.93;0.53;;;;;;;0.12;68.67;98669.16;5053853;28;20265;-76
2021/03/20 00:29:14;;;;;;;0.70;0.47;;;;;;;0.16;68.12;98663.19;5055261;28;20209;-77
2021/03/20 00:31:41;;;;;;;0.47;0.47;;;;;;;0.12;67.37;98664.03;5056132;28;20248;-76
2021/03/20 00:34:07;;;;;;;2.57;1.17;;;;;;;0.19;67.37;98668.38;5056062;28;20244;-75
2021/03/20 00:36:33;;;;;;;2.47;1.30;;;;;;;0.19;67.72;98670.94;5055010;28;20259;-74
2021/03/20 00:38:59;;;;;;;2.70;1.30;;;;;;;0.20;66.40;98669.22;5054184;28;20214;-75
2021/03/20 00:41:25;;;;;;;1.83;1.30;;;;;;;0.33;66.71;98670.22;5056518;28;20268;-74
2021/03/20 00:43:51;;;;;;;3.00;1.60;;;;;;;0.43;66.53;98659.22;5058856;28;20245;-75
2021/03/20 00:46:17;;;;;;;1.90;1.40;;;;;;;0.58;66.27;98658.50;5054758;28;20241;-73
2021/03/20 00:48:44;;;;;;;1.90;1.47;;;;;;;0.64;66.09;98658.56;5058756;28;20215;-74
2021/03/20 00:51:10;;;;;;;2.13;1.40;;;;;;;0.69;65.46;98656.91;5055351;28;20295;-74
2021/03/20 00:53:37;;;;;;;1.63;1.50;;;;;;;0.72;65.04;98658.66;5056774;28;20213;-74
2021/03/20 00:56:04;;;;;;;1.63;1.37;;;;;;;0.73;65.08;98670.63;5053484;28;20233;-76
2021/03/20 00:58:32;;;;;;;2.07;1.20;;;;;;;0.77;65.16;98664.66;5058091;28;20223;-75
2021/03/20 01:01:00;;;;;;;2.50;1.50;;;;;;;0.72;64.65;98663.78;5059524;28;20241;-75
2021/03/20 01:03:26;;;;;;;4.83;2.03;;;;;;;0.72;64.79;98661.22;5060866;28;20226;-74
2021/03/20 01:05:53;;;;;;;2.23;1.77;;;;;;;0.70;65.21;98665.44;5056370;28;20888;-75
2021/03/20 01:08:20;;;;;;;3.63;1.67;;;;;;;0.67;65.61;98668.00;5057427;28;20698;-74
2021/03/20 01:10:47;;;;;;;3.03;1.53;;;;;;;0.51;66.14;98662.72;5053697;28;20240;-74
2021/03/20 01:13:15;;;;;;;2.40;1.70;;;;;;;0.32;66.40;98668.53;5056185;28;20213;-76
2021/03/20 01:15:41;;;;;;;4.17;2.20;;;;;;;0.28;65.93;98667.63;5055458;28;20241;-74
2021/03/20 01:18:08;;;;;;;3.60;1.80;;;;;;;0.33;66.23;98677.91;5059806;28;20214;-74
2021/03/20 01:20:34;;;;;;;3.33;1.73;;;;;;;0.42;66.08;98680.59;5058583;28;20242;-74
2021/03/20 01:23:01;;;;;;;2.80;1.63;;;;;;;0.46;65.94;98684.94;5060540;28;20213;-74
2021/03/20 01:25:27;;;;;;;3.30;1.60;;;;;;;0.49;65.31;98692.63;5054452;28;20245;-74
2021/03/20 01:27:54;;;;;;;3.20;1.77;;;;;;;0.48;65.55;98684.91;5056221;28;20295;-75
2021/03/20 01:30:22;;;;;;;3.37;1.80;;;;;;;0.45;64.77;98685.75;5056418;28;20918;-74
2021/03/20 01:32:48;;;;;;;3.57;1.70;;;;;;;0.48;63.88;98685.81;5054641;28;20217;-76
2021/03/20 01:35:15;;;;;;;2.17;1.87;;;;;;;0.42;64.00;98690.00;5056275;28;20209;-76
2021/03/20 01:37:41;;;;;;;2.60;1.30;;;;;;;0.30;65.30;98693.31;5058619;28;20232;-74
2021/03/20 01:40:09;;;;;;;2.50;1.93;;;;;;;0.32;64.31;98686.47;5056918;28;20232;-74
2021/03/20 01:42:40;;;;;;;3.13;1.70;;;;;;;0.19;64.58;98691.47;5056638;28;20213;-75
2021/03/20 01:45:15;;;;;;;3.17;1.60;;;;;;;0.09;64.96;98696.47;5056990;28;20852;-75
2021/03/20 01:47:54;;;;;;;4.27;1.73;;;;;;;0.19;64.03;98690.63;5058541;28;20241;-75
2021/03/20 01:50:26;;;;;;;4.93;2.30;;;;;;;0.23;63.76;98694.06;5056772;28;20762;-75
2021/03/20 01:52:55;;;;;;;3.00;2.00;;;;;;;0.27;63.68;98700.97;5060584;28;20213;-75
2021/03/20 01:55:24;;;;;;;2.33;1.90;;;;;;;0.30;63.88;98689.03;5061292;28;20208;-74
2021/03/20 01:57:52;;;;;;;2.60;2.13;;;;;;;0.31;63.50;98687.31;5059368;28;20213;-75
2021/03/20 02:00:23;;;;;;;4.40;2.40;;;;;;;0.28;63.40;98682.16;5058349;28;20296;-75
2021/03/20 02:02:49;;;;;;;1.40;1.20;;;;;;;0.19;63.03;98688.91;5058644;28;20258;-75
2021/03/20 02:05:19;;;;;;;4.33;2.77;;;;;;;0.15;62.43;98692.28;5059444;28;20238;-75
2021/03/20 02:07:45;;;;;;;2.97;2.13;;;;;;;0.17;63.12;98693.16;5060183;28;21182;-74
2021/03/20 02:10:13;;;;;;;3.40;2.67;;;;;;;0.13;62.86;98693.97;5059326;28;20233;-74
2021/03/20 02:12:40;;;;;;;3.57;2.30;;;;;;;0.13;63.16;98699.09;5057479;28;20217;-74
2021/03/20 02:15:12;;;;;;;4.40;2.47;;;;;;;0.11;62.95;98695.66;5059487;28;20202;-77
2021/03/20 02:17:45;;;;;;;3.50;1.73;;;;;;;-0.02;62.70;98693.75;5061495;28;20265;-75
2021/03/20 02:21:07;;;;;;;4.37;2.40;;;;;;;-0.07;62.63;98695.44;5060828;28;20237;-74
2021/03/20 02:23:57;;;;;;;4.57;2.77;;;;;;;-0.14;63.37;98697.06;5059761;28;20217;-76
2021/03/20 02:27:06;;;;;;;4.43;2.67;;;;;;;-0.19;62.52;98693.56;5057579;28;20295;-73
2021/03/20 02:29:59;;;;;;;3.37;2.47;;;;;;;-0.26;62.74;98704.56;5034492;28;20204;-74
2021/03/20 02:32:43;;;;;;;4.53;2.60;;;;;;;-0.32;63.81;98709.63;5056542;28;20726;-74
2021/03/20 02:35:15;;;;;;;2.97;2.00;;;;;;;-0.41;64.54;98705.22;5059979;28;20253;-76
2021/03/20 02:37:46;;;;;;;2.47;1.57;;;;;;;-0.55;64.63;98704.16;5060316;28;20209;-74
2021/03/20 02:40:17;;;;;;;4.60;2.73;;;;;;;-0.65;64.63;98713.41;5060890;28;20237;-74
2021/03/20 02:42:46;;;;;;;2.60;2.10;;;;;;;-0.73;64.72;98710.75;5057962;28;20197;-74
2021/03/20 02:45:15;;;;;;;3.40;1.90;;;;;;;-0.74;64.78;98706.44;5062099;28;20915;-76
2021/03/20 02:47:48;;;;;;;3.27;1.80;;;;;;;-0.69;64.80;98720.19;5059580;28;20213;-74
2021/03/20 02:50:20;;;;;;;4.10;1.80;;;;;;;-0.71;64.78;98716.75;5058769;28;20229;-76
2021/03/20 02:52:50;;;;;;;0.67;0.57;;;;;;;-0.86;65.20;98708.84;5058765;28;20229;-74
2021/03/20 02:55:20;;;;;;;2.73;0.83;;;;;;;-0.98;65.43;98719.72;5060413;28;20208;-75
2021/03/20 02:57:50;;;;;;;3.33;0.87;;;;;;;-1.05;65.84;98721.34;5058913;28;20706;-74
2021/03/20 03:00:20;;;;;;;2.93;2.00;;;;;;;-1.09;65.18;98716.97;5059794;28;20243;-76
2021/03/20 03:02:48;;;;;;;3.23;2.10;;;;;;;-0.97;65.15;98718.91;5058526;28;20267;-75
2021/03/20 03:05:17;;;;;;;4.77;2.17;;;;;;;-0.87;65.12;98725.88;5058903;28;20237;-74
2021/03/20 03:07:46;;;;;;;4.00;2.00;;;;;;;-0.82;65.26;98719.13;5057614;28;20828;-75
2021/03/20 03:10:17;;;;;;;2.47;1.77;;;;;;;-0.84;65.13;98717.41;5057692;28;20255;-74
2021/03/20 03:12:47;;;;;;;4.93;1.80;;;;;;;-0.83;64.99;98712.31;5057630;28;20206;-75
2021/03/20 03:15:15;;;;;;;3.03;1.90;;;;;;;-0.81;65.35;98714.88;5059168;28;20670;-75
2021/03/20 03:17:44;;;;;;;2.90;0.80;;;;;;;-0.99;66.01;98721.44;5061901;28;20933;-75
2021/03/20 03:20:14;;;;;;;2.97;2.10;;;;;;;-1.12;65.02;98704.16;5057312;28;20233;-75
2021/03/20 03:22:43;;;;;;;0.80;0.50;;;;;;;-1.23;65.98;98713.31;5057456;28;20255;-75
2021/03/20 03:25:11;;;;;;;1.80;1.47;;;;;;;-1.20;65.55;98716.78;5057586;28;20232;-75
2021/03/20 03:27:39;;;;;;;1.70;1.60;;;;;;;-1.23;65.88;98716.75;5059197;28;20215;-75
2021/03/20 03:30:08;;;;;;;3.97;1.73;;;;;;;-1.20;66.06;98731.28;5058071;28;20329;-74
2021/03/20 03:32:36;;;;;;;3.77;1.60;;;;;;;-1.19;66.15;98727.91;5056578;28;20297;-73
2021/03/20 03:35:07;;;;;;;3.30;2.03;;;;;;;-1.10;66.08;98715.28;5060466;28;20209;-76
2021/03/20 03:37:38;;;;;;;1.63;1.50;;;;;;;-1.10;66.09;98714.38;5058760;28;20691;-75
2021/03/20 03:40:07;;;;;;;3.83;1.80;;;;;;;-1.06;65.61;98723.88;5058062;28;20220;-75
2021/03/20 03:42:34;;;;;;;2.73;1.40;;;;;;;-1.11;65.92;98716.09;5055550;28;20222;-74
2021/03/20 03:45:00;;;;;;;2.43;1.57;;;;;;;-1.11;65.76;98716.09;5056779;28;20282;-75
2021/03/20 03:47:29;;;;;;;2.00;1.67;;;;;;;-1.16;65.28;98727.94;5055393;28;20290;-75
2021/03/20 03:49:57;;;;;;;3.30;1.70;;;;;;;-1.10;65.88;98733.19;5056088;28;20224;-75
2021/03/20 03:52:23;;;;;;;2.63;1.60;;;;;;;-1.12;65.78;98729.75;5059043;28;20286;-74
2021/03/20 03:54:50;;;;;;;2.10;1.70;;;;;;;-1.10;65.58;98730.63;5057077;28;20690;-75
2021/03/20 03:57:25;;;;;;;2.63;1.70;;;;;;;-1.07;65.43;98734.94;5058247;28;20240;-73
2021/03/20 04:00:00;;;;;;;3.07;1.70;;;;;;;-1.05;64.92;98735.81;5059477;28;20213;-75
2021/03/20 04:02:39;;;;;;;3.37;1.77;;;;;;;-1.00;64.88;98729.94;5064728;28;20234;-75
2021/03/20 04:05:10;;;;;;;4.13;1.67;;;;;;;-1.03;64.48;98745.28;5057532;28;20225;-75
2021/03/20 04:07:52;;;;;;;4.70;1.97;;;;;;;-1.00;64.86;98745.31;5059954;28;20351;-75
2021/03/20 04:10:26;;;;;;;2.93;1.67;;;;;;;-1.01;64.96;98748.72;5058710;28;20319;-74
2021/03/20 04:12:58;;;;;;;2.37;1.40;;;;;;;-1.09;65.54;98749.41;5058827;28;20692;-74
2021/03/20 04:15:43;;;;;;;2.10;1.57;;;;;;;-1.22;65.72;98740.66;5059901;28;20955;-75
2021/03/20 04:18:15;;;;;;;2.93;1.33;;;;;;;-1.36;65.56;98748.94;5057805;28;20214;-75
2021/03/20 04:20:46;;;;;;;2.90;1.70;;;;;;;-1.37;65.73;98747.22;5054968;28;20573;-75
2021/03/20 04:23:17;;;;;;;2.37;1.53;;;;;;;-1.47;66.02;98741.88;5060636;28;20209;-75
2021/03/20 04:25:50;;;;;;;2.40;1.40;;;;;;;-1.48;66.43;98746.16;5055487;28;20225;-75
2021/03/20 04:28:23;;;;;;;2.67;1.47;;;;;;;-1.50;65.87;98747.81;5056838;28;20205;-74
2021/03/20 04:30:50;;;;;;;4.90;2.03;;;;;;;-1.43;66.42;98744.53;5057384;28;20382;-74
2021/03/20 04:33:21;;;;;;;3.77;1.40;;;;;;;-1.44;66.13;98745.38;5058642;28;20212;-76
2021/03/20 04:35:51;;;;;;;2.10;1.40;;;;;;;-1.40;66.08;98743.72;5058242;28;20248;-74
2021/03/20 04:38:17;;;;;;;2.33;1.60;;;;;;;-1.36;66.06;98745.50;5057624;28;20275;-74
2021/03/20 04:40:49;;;;;;;3.83;1.40;;;;;;;-1.30;65.88;98749.91;5056580;28;20230;-74
2021/03/20 04:43:17;;;;;;;1.80;1.47;;;;;;;-1.37;65.54;98754.88;5057496;28;20211;-74
2021/03/20 04:45:45;;;;;;;2.23;1.50;;;;;;;-1.36;65.79;98760.84;5055494;28;20283;-75
2021/03/20 04:48:16;;;;;;;2.57;1.17;;;;;;;-1.42;65.86;98756.50;5057797;28;20218;-75
2021/03/20 04:50:44;;;;;;;3.23;1.60;;;;;;;-1.45;65.74;98750.44;5058229;28;20237;-75
2021/03/20 04:53:13;;;;;;;3.07;1.50;;;;;;;-1.39;65.50;98759.13;5057415;28;20278;-75
2021/03/20 04:55:39;;;;;;;1.80;1.30;;;;;;;-1.44;66.00;98745.38;5058206;28;20233;-74
2021/03/20 04:58:14;;;;;;;4.30;2.57;;;;;;;-1.43;66.66;98752.22;5058448;28;20209;-74
2021/03/20 05:00:44;;;;;;;3.00;1.43;;;;;;;-1.41;66.13;98752.25;5054969;28;20236;-74
2021/03/20 05:03:15;;;;;;;2.40;1.20;;;;;;;-1.41;66.44;98747.13;5056024;28;20205;-73
2021/03/20 05:05:46;;;;;;;2.53;1.70;;;;;;;-1.39;66.28;98746.31;5056282;28;20232;-75
2021/03/20 05:08:14;;;;;;;2.93;1.67;;;;;;;-1.37;65.98;98757.44;5058605;28;20205;-76
2021/03/20 05:10:45;;;;;;;1.67;1.20;;;;;;;-1.33;65.88;98760.06;5060107;28;20609;-74
2021/03/20 05:13:20;;;;;;;3.57;1.50;;;;;;;-1.29;65.99;98762.69;5059821;28;20216;-75
2021/03/20 05:15:46;;;;;;;3.37;1.50;;;;;;;-1.27;65.69;98760.19;5055221;28;20804;-76
2021/03/20 05:18:12;;;;;;;2.93;1.50;;;;;;;-1.30;65.86;98760.13;5060914;28;20209;-74
2021/03/20 05:20:38;;;;;;;3.63;1.50;;;;;;;-1.28;65.64;98768.72;5057372;28;20279;-74
2021/03/20 05:23:04;;;;;;;3.37;1.70;;;;;;;-1.23;65.28;98769.63;5055658;28;20873;-76
2021/03/20 05:25:30;;;;;;;2.50;1.40;;;;;;;-1.15;65.00;98775.78;5058530;28;20237;-73
2021/03/20 05:27:56;;;;;;;2.70;1.60;;;;;;;-1.12;65.25;98775.84;5062350;28;20231;-75
2021/03/20 05:30:25;;;;;;;1.87;1.43;;;;;;;-1.21;65.03;98776.53;5059466;28;20742;-75
2021/03/20 05:32:51;;;;;;;2.33;1.70;;;;;;;-1.33;65.51;98785.66;5060347;28;20274;-74
2021/03/20 05:35:22;;;;;;;2.47;1.50;;;;;;;-1.42;65.57;98787.19;5061018;28;20217;-75
2021/03/20 05:37:48;;;;;;;3.80;1.33;;;;;;;-1.57;65.93;98799.69;5064140;28;20279;-74
2021/03/20 05:40:19;;;;;;;2.90;0.97;;;;;;;-1.80;66.72;98794.97;5060803;28;20233;-75
2021/03/20 05:43:07;;;;;;;1.80;1.27;;;;;;;-1.97;67.00;98798.84;5059249;28;20259;-75
2021/03/20 05:45:38;;;;;;;1.87;1.40;;;;;;;-1.88;66.63;98806.72;5061289;28;20283;-74
2021/03/20 05:48:13;;;;;;;2.73;1.53;;;;;;;-1.94;66.61;98806.59;5059039;28;20228;-74
2021/03/20 05:50:55;;;;;;;4.00;1.63;;;;;;;-1.96;66.31;98808.28;5059057;28;20237;-76
2021/03/20 05:53:53;;;;;;;1.57;1.10;;;;;;;-2.08;66.79;98813.09;5063855;28;20863;-74
2021/03/20 05:56:23;;;;;;;1.63;1.20;;;;;;;-2.17;67.54;98819.75;5057991;28;20259;-74
2021/03/20 05:59:08;;;;;;;0.67;0.67;;;;;;;-2.26;67.48;98822.09;5062935;28;20216;-74
2021/03/20 06:01:43;;;;;;;1.67;0.90;;;;;;;-2.26;67.34;98824.66;5054472;28;20237;-75
2021/03/20 06:04:40;;;;;;;2.43;1.17;;;;;;;-2.33;67.18;98828.75;5053025;28;20225;-74
2021/03/20 06:07:31;;;;;;;1.37;0.90;;;;;;;-2.35;68.10;98829.53;5060025;28;20237;-74
2021/03/20 06:10:05;;;;;;;0.73;0.40;;;;;;;-2.35;67.55;98844.88;5063890;28;20296;-74
2021/03/20 06:12:56;;;;;;;2.77;1.13;;;;;;;-2.36;66.51;98838.03;5063673;28;20240;-74
2021/03/20 06:15:34;;;;;;;3.70;1.13;;;;;;;-2.34;65.96;98832.13;5059530;28;20302;-76
2021/03/20 06:18:24;;;;;;;1.63;0.90;;;;;;;-2.29;65.14;98845.00;5059091;28;20205;-76
2021/03/20 06:21:38;;;;;;;0.67;0.47;;;;;;;-2.27;65.88;98833.13;5018459;27;1438332;-76
2021/03/20 06:24:40;;;;;;;0.90;0.60;;;;;;;-2.23;66.09;98834.94;5032167;28;20206;-77
2021/03/20 06:27:09;;;;;;;0.57;0.50;;;;;;;-2.19;65.46;98833.31;5021660;28;20320;-77
2021/03/20 06:29:38;;;;;;;0.63;0.60;;;;;;;-2.13;67.02;98836.03;5035469;28;20737;-77
2021/03/20 06:32:14;;;;;;;2.17;1.10;;;;;;;-2.08;65.48;98831.00;5034551;28;20288;-78
2021/03/20 06:34:42;;;;;;;2.73;1.97;;;;;;;-2.00;65.28;98839.72;5035877;28;20210;-78
2021/03/20 06:37:16;;;;;;;5.17;1.23;;;;;;;-1.96;65.27;98833.84;5037074;28;20237;-78
2021/03/20 06:39:46;;;;;;;1.10;0.97;;;;;;;-1.96;65.09;98850.03;5038312;28;20214;-78
2021/03/20 06:42:18;;;;;;;3.37;2.00;;;;;;;-1.77;65.21;98851.28;5036618;28;20831;-78
2021/03/20 06:44:46;;;;;;;1.40;1.03;;;;;;;-1.68;64.57;98866.00;5033011;28;20214;-78
2021/03/20 06:47:15;;;;;;;2.70;1.00;;;;;;;-1.70;63.68;98864.25;5033961;28;20240;-77
2021/03/20 06:49:45;;;;;;;6.60;1.80;;;;;;;-1.53;64.72;98862.88;5033546;28;20268;-77
2021/03/20 06:52:20;;;;;;;3.70;1.97;;;;;;;-1.41;64.73;98865.72;5033476;28;20398;-78
2021/03/20 06:54:48;;;;;;;3.73;1.90;;;;;;;-1.23;64.39;98864.34;5034796;28;20316;-78
2021/03/20 06:57:14;;;;;;;1.90;1.43;;;;;;;-1.18;63.00;98873.00;5033100;28;20237;-78
2021/03/20 06:59:40;;;;;;;1.93;0.90;;;;;;;-1.11;63.15;98867.16;5033186;28;20639;-76
2021/03/20 07:02:18;;;;;;;3.97;2.00;;;;;;;-1.18;62.14;98873.00;5033977;28;20238;-75
2021/03/20 07:05:03;;;;;;;2.17;1.70;;;;;;;-1.01;62.22;98874.19;5033842;28;20272;-76
2021/03/20 07:07:40;;;;;;;4.37;2.30;;;;;;;-0.83;62.00;98873.69;5053269;28;20233;-76
2021/03/20 07:10:11;;;;;;;4.80;2.00;;;;;;;-0.66;61.96;98878.22;5053192;28;20663;-77
2021/03/20 07:13:06;;;;;;;3.03;1.57;;;;;;;-0.45;60.78;98878.59;5054640;28;20206;-77
2021/03/20 07:15:32;;;;;;;4.37;1.60;;;;;;;-0.30;61.59;98882.28;5056156;28;20275;-78
2021/03/20 07:18:21;;;;;;;3.17;1.80;;;;;;;-0.16;60.74;98880.81;5056760;28;20727;-76
2021/03/20 07:20:48;;;;;;;5.03;1.90;;;;;;;-0.17;60.77;98893.59;5055876;28;20241;-75
2021/03/20 07:23:16;;;;;;;2.53;1.87;;;;;;;-0.12;61.06;98897.09;5054870;28;20214;-75
2021/03/20 07:25:45;;;;;;;4.00;1.50;;;;;;;-0.28;59.66;98899.41;5051034;28;20232;-76
2021/03/20 07:28:14;;;;;;;2.63;1.60;;;;;;;-0.11;60.15;98903.94;5053581;28;20210;-78
2021/03/20 07:30:43;;;;;;;2.33;1.73;;;;;;;-0.02;58.81;98911.78;5052819;28;20237;-77
2021/03/20 07:33:28;;;;;;;2.93;1.70;;;;;;;0.01;58.49;98909.28;5042625;28;20214;-77
2021/03/20 07:35:56;;;;;;;2.97;1.87;;;;;;;0.11;58.47;98900.91;5041868;28;20242;-77
2021/03/20 07:38:27;;;;;;;3.83;1.63;;;;;;;0.18;57.61;98918.13;5039972;28;20210;-76
2021/03/20 07:41:08;;;;;;;3.73;2.03;;;;;;;0.27;56.20;98911.38;5038119;28;20318;-78
2021/03/20 07:43:35;;;;;;;4.23;1.80;;;;;;;0.35;56.95;98915.78;5041050;28;20218;-78
2021/03/20 07:46:22;;;;;;;3.40;1.80;;;;;;;0.36;55.29;98925.19;5040352;28;20238;-77
2021/03/20 07:48:58;;;;;;;3.90;1.63;;;;;;;0.48;55.88;98926.22;5031771;28;20206;-77
2021/03/20 07:51:24;;;;;;;1.23;1.07;;;;;;;0.41;57.12;98920.16;5038182;28;20275;-76
2021/03/20 07:53:52;;;;;;;2.33;1.70;;;;;;;0.52;56.52;98920.31;5042262;28;20587;-77
2021/03/20 07:56:30;;;;;;;2.73;1.90;;;;;;;0.48;55.98;98926.22;5039041;28;20360;-77
2021/03/20 07:59:07;;;;;;;1.93;1.20;;;;;;;0.56;55.89;98930.63;5038656;28;20209;-78
2021/03/20 08:01:35;;;;;;;3.57;1.50;;;;;;;0.69;55.55;98920.53;5039503;28;20237;-77
2021/03/20 08:04:03;;;;;;;4.33;1.83;;;;;;;0.74;55.36;98929.16;5039973;28;20214;-78
2021/03/20 08:06:43;;;;;;;4.17;1.83;;;;;;;0.74;55.49;98930.00;5039644;28;20324;-78
2021/03/20 08:09:23;;;;;;;2.67;1.50;;;;;;;0.86;55.57;98931.00;5042665;28;20244;-76
2021/03/20 08:12:08;;;;;;;2.87;1.67;;;;;;;0.96;55.01;98933.72;5040282;28;20356;-77
2021/03/20 08:14:46;;;;;;;4.30;2.00;;;;;;;1.00;54.28;98926.06;5041488;28;20963;-78
2021/03/20 08:17:14;;;;;;;1.90;1.43;;;;;;;0.91;54.00;98926.81;5041693;28;20245;-78
2021/03/20 08:19:41;;;;;;;2.70;1.50;;;;;;;1.01;53.81;98930.34;5041419;28;20230;-78
2021/03/20 08:22:35;;;;;;;4.20;1.80;;;;;;;1.18;51.91;98934.00;5038309;28;20272;-76
2021/03/20 08:25:15;;;;;;;1.97;1.70;;;;;;;1.39;52.52;98929.94;5025014;28;20215;-77
2021/03/20 08:27:53;;;;;;;2.17;1.40;;;;;;;1.50;52.12;98933.47;5011887;28;20245;-77
2021/03/20 08:30:35;;;;;;;2.97;1.80;;;;;;;1.50;52.92;98936.03;5013683;28;20238;-78
2021/03/20 08:33:12;;;;;;;2.70;1.70;;;;;;;1.57;52.33;98929.25;5021615;28;20437;-76
2021/03/20 08:35:48;;;;;;;2.03;1.50;;;;;;;1.60;50.74;98918.97;5021771;28;20234;-76
2021/03/20 08:38:41;;;;;;;1.87;1.40;;;;;;;1.84;51.89;98924.38;5019888;28;20202;-76
2021/03/20 08:41:13;;;;;;;2.77;1.50;;;;;;;1.95;51.12;98926.16;5015568;28;20238;-76
2021/03/20 08:44:18;;;;;;;2.20;1.60;;;;;;;1.93;50.89;98929.59;5015561;28;20751;-77
2021/03/20 08:47:09;;;;;;;2.23;1.50;;;;;;;2.12;50.40;98934.91;5020484;28;20665;-77
2021/03/20 08:49:53;;;;;;;1.93;1.37;;;;;;;2.12;49.70;98930.59;5021575;28;20684;-77
2021/03/20 08:52:24;;;;;;;5.63;1.33;;;;;;;2.03;49.34;98935.66;5020172;28;20242;-78
2021/03/20 08:55:57;;;;;;;2.03;1.13;;;;;;;2.08;49.55;98928.84;5101174;27;20687;-76
2021/03/20 08:58:38;;;;;;;2.23;1.63;;;;;;;2.30;49.82;98931.59;5084382;28;20668;-76
2021/03/20 09:01:08;;;;;;;2.50;1.13;;;;;;;2.37;49.29;98935.06;5084384;28;20259;-76
2021/03/20 09:03:37;;;;;;;2.57;1.90;;;;;;;2.19;49.46;98925.47;5087352;28;20200;-77
2021/03/20 09:06:11;;;;;;;2.23;1.53;;;;;;;2.37;48.98;98928.22;5086431;28;20305;-75
2021/03/20 09:08:40;;;;;;;5.00;1.90;;;;;;;2.64;49.33;98919.78;5088759;28;20208;-76
2021/03/20 09:11:12;;;;;;;2.93;1.63;;;;;;;2.66;49.29;98924.94;5085386;28;20280;-76
2021/03/20 09:13:42;;;;;;;2.60;1.67;;;;;;;2.60;48.01;98922.34;5081585;28;20216;-77
2021/03/20 09:16:28;;;;;;;2.20;1.50;;;;;;;2.84;47.99;98921.59;5083003;28;20235;-76
2021/03/20 09:18:55;;;;;;;2.03;1.27;;;;;;;2.98;48.56;98924.22;5083037;28;20584;-78
2021/03/20 09:21:21;;;;;;;3.17;1.53;;;;;;;2.87;48.42;98930.22;5086100;28;20246;-77
2021/03/20 09:25:39;;;;;;;3.07;1.60;;;;;;;2.76;47.87;98926.72;5078364;27;21076;-76
2021/03/20 09:28:10;;;;;;;3.03;1.80;;;;;;;2.82;46.96;98913.88;5067670;28;20213;-77
2021/03/20 09:30:38;;;;;;;5.20;1.47;;;;;;;2.94;47.62;98912.19;5070233;28;20233;-77
2021/03/20 09:33:07;;;;;;;2.10;1.50;;;;;;;2.91;47.72;98923.38;5085394;28;20213;-76
2021/03/20 09:35:43;;;;;;;2.70;1.50;;;;;;;3.00;45.66;98917.41;5085449;28;20244;-77
2021/03/20 09:38:10;;;;;;;2.30;1.07;;;;;;;2.98;45.46;98914.81;5088343;28;20301;-76
2021/03/20 09:40:40;;;;;;;1.70;1.17;;;;;;;3.04;47.27;98926.84;5086159;28;20666;-76
2021/03/20 09:43:21;;;;;;;3.07;1.30;;;;;;;3.09;45.86;98917.44;5084077;28;20264;-76
2021/03/20 09:45:50;;;;;;;2.90;1.70;;;;;;;3.35;46.01;98916.66;5080888;28;20612;-76
2021/03/20 09:48:43;;;;;;;1.50;0.83;;;;;;;3.14;44.62;98917.44;5112691;27;20615;-78
2021/03/20 09:51:47;;;;;;;2.50;1.40;;;;;;;3.38;43.33;98924.38;5101986;28;20876;-76
2021/03/20 09:54:43;;;;;;;1.60;1.00;;;;;;;3.40;42.87;98922.66;5098278;28;20218;-75
2021/03/20 09:57:46;;;;;;;2.60;1.33;;;;;;;3.63;42.21;98935.63;5014365;28;20235;-76
2021/03/20 10:00:14;;;;;;;2.80;1.37;;;;;;;3.77;42.87;98935.66;5075936;28;20216;-75
2021/03/20 10:02:53;;;;;;;1.50;1.03;;;;;;;3.90;43.22;98934.81;5073721;28;20212;-76
2021/03/20 10:05:27;;;;;;;2.53;1.30;;;;;;;3.88;40.23;98930.47;5074630;28;20763;-76
2021/03/20 10:08:00;;;;;;;1.97;1.50;;;;;;;4.03;41.96;98931.38;5073208;28;20220;-75
2021/03/20 10:10:42;;;;;;;1.83;1.40;;;;;;;4.21;41.01;98927.06;5076258;28;20337;-75
2021/03/20 10:13:14;;;;;;;4.80;1.80;;;;;;;4.27;43.02;98921.91;5077343;28;20304;-77
2021/03/20 10:17:28;;;;;;;2.20;1.07;;;;;;;3.79;42.91;98923.63;5075987;27;20536;-76
2021/03/20 10:20:06;;;;;;;2.80;1.50;;;;;;;3.76;42.46;98923.59;5072106;28;20671;-75
2021/03/20 10:22:34;;;;;;;3.20;1.47;;;;;;;3.66;44.54;98931.34;5053139;28;20243;-74
2021/03/20 10:25:00;;;;;;;3.00;1.53;;;;;;;3.92;43.61;98927.91;5053793;28;20209;-73
2021/03/20 10:27:31;;;;;;;1.37;1.20;;;;;;;3.66;43.20;98928.75;5052527;28;20237;-75
2021/03/20 10:30:11;;;;;;;1.30;1.10;;;;;;;3.73;41.85;98927.06;5052189;28;20217;-74
2021/03/20 10:32:38;;;;;;;2.23;1.37;;;;;;;4.00;43.93;98944.25;5052757;28;20240;-73
2021/03/20 10:35:07;;;;;;;1.67;1.20;;;;;;;4.13;42.78;98933.94;5052503;28;20221;-74
2021/03/20 10:37:34;;;;;;;3.10;0.87;;;;;;;4.14;40.47;98933.09;5054740;28;20236;-74
2021/03/20 10:40:08;;;;;;;3.33;1.23;;;;;;;3.94;40.01;98933.94;5053042;28;20228;-74
2021/03/20 10:42:37;;;;;;;2.33;1.30;;;;;;;4.22;42.17;98936.53;5051808;28;20225;-74
2021/03/20 10:45:07;;;;;;;1.20;0.77;;;;;;;4.27;40.07;98921.03;5052190;28;20214;-75
2021/03/20 10:47:35;;;;;;;2.30;1.23;;;;;;;4.42;40.93;98919.28;5055360;28;20608;-74
2021/03/20 10:50:06;;;;;;;0.83;0.77;;;;;;;4.55;42.39;98927.00;5053998;28;20312;-75
2021/03/20 10:53:01;;;;;;;1.87;1.20;;;;;;;4.22;41.59;98926.19;5081703;27;20509;-74
2021/03/20 10:55:37;;;;;;;3.13;1.27;;;;;;;4.16;43.00;98927.06;5076885;28;20240;-74
2021/03/20 10:58:05;;;;;;;2.63;1.20;;;;;;;4.33;41.59;98928.78;5064827;28;20792;-76
2021/03/20 11:00:40;;;;;;;3.67;1.87;;;;;;;4.54;42.03;98917.53;5058741;28;20279;-76
2021/03/20 11:03:11;;;;;;;1.50;1.40;;;;;;;4.91;41.60;98922.63;5062306;28;20691;-76
2021/03/20 11:05:40;;;;;;;4.60;2.20;;;;;;;5.23;39.90;98909.56;5059035;28;20233;-76
2021/03/20 11:08:21;;;;;;;1.97;1.67;;;;;;;5.55;39.37;98906.78;5062765;28;20258;-76
2021/03/20 11:10:49;;;;;;;3.23;1.40;;;;;;;5.58;39.50;98916.25;5064925;28;20913;-78
2021/03/20 11:13:32;;;;;;;1.10;0.93;;;;;;;5.06;38.64;98917.38;5062708;28;20694;-78
2021/03/20 11:16:06;;;;;;;2.13;1.50;;;;;;;4.63;39.89;98910.63;5057865;28;20241;-76
2021/03/20 11:18:36;;;;;;;4.30;2.10;;;;;;;4.72;40.65;98898.53;5067681;28;20736;-76
2021/03/20 11:21:02;;;;;;;2.30;1.70;;;;;;;4.70;41.38;98903.72;5060460;28;20366;-77
2021/03/20 11:23:32;;;;;;;2.57;1.40;;;;;;;4.53;41.51;98902.91;5062310;28;20214;-76
2021/03/20 11:26:09;;;;;;;2.97;0.73;;;;;;;4.00;42.54;98904.69;5060211;28;20745;-78
2021/03/20 11:28:36;;;;;;;3.00;0.97;;;;;;;3.55;40.55;98914.97;5065046;28;20572;-76
2021/03/20 11:31:06;;;;;;;1.67;1.30;;;;;;;3.62;42.44;98908.97;5060844;28;20241;-77
2021/03/20 11:33:35;;;;;;;3.38;1.83;;;;;;;4.05;41.98;98893.50;5060951;28;20488;-76
2021/03/20 11:36:03;;;;;;;2.30;1.60;;;;;;;4.29;41.90;98896.91;5063862;28;20237;-76
2021/03/20 11:38:34;;;;;;;1.80;1.50;;;;;;;4.40;42.36;98897.75;5065416;28;20574;-78
2021/03/20 11:41:19;;;;;;;2.63;1.40;;;;;;;4.43;40.42;98895.19;5060736;28;20233;-78
2021/03/20 11:43:48;;;;;;;1.63;0.70;;;;;;;4.13;40.86;98895.22;5055655;28;20213;-78
2021/03/20 11:46:18;;;;;;;2.40;1.40;;;;;;;3.89;42.37;98902.09;5060438;28;20234;-78
2021/03/20 11:48:52;;;;;;;2.00;1.43;;;;;;;3.94;40.71;98899.53;5058609;28;20209;-77
2021/03/20 11:51:22;;;;;;;2.47;1.13;;;;;;;3.85;40.50;98890.06;5059221;28;20222;-78
2021/03/20 11:53:53;;;;;;;1.40;0.70;;;;;;;3.85;42.87;98887.47;5061904;28;20262;-79
2021/03/20 11:56:22;;;;;;;1.80;1.10;;;;;;;3.90;42.90;98898.66;5061724;28;20237;-77
2021/03/20 11:58:51;;;;;;;0.20;0.20;;;;;;;3.85;41.78;98887.47;5064031;28;20214;-77
2021/03/20 12:01:30;;;;;;;2.33;1.37;;;;;;;4.14;41.38;98886.63;5060047;28;20881;-79
2021/03/20 12:03:59;;;;;;;1.40;0.93;;;;;;;3.83;41.44;98896.94;5048674;28;20225;-77
2021/03/20 12:06:27;;;;;;;3.63;1.27;;;;;;;3.69;42.91;98888.31;5046380;28;20235;-78
2021/03/20 12:08:55;;;;;;;1.27;0.60;;;;;;;3.78;41.67;98878.00;5047064;28;20209;-77
2021/03/20 12:11:23;;;;;;;2.10;1.43;;;;;;;3.83;41.57;98865.97;5045644;28;21267;-76